Time;durP1;ratioP1;P1;durP2;ratioP2;P2;SDS_P1;SDS_P2;PMS_P1;PMS_P2;Temp;Humidity;BMP_temperature;BMP_pressure;BME280_temperature;BME280_humidity;BME280_pressure;Samples;Min_cycle;Max_cycle;Signal;HPM_P1;HPM_P2
2021/03/10 04:34:17;;;;;;;18.65;11.68;;;;;;;;;;4995719;28;20056;-92
2021/03/10 04:37:31;;;;;;;20.70;12.23;;;;;;;;;;4939448;29;20039;-92
2021/03/10 04:40:38;;;;;;;19.53;12.53;;;;;;;;;;4967703;28;20022;-92
2021/03/10 04:43:44;;;;;;;20.05;12.73;;;;;;;;;;5003116;28;20041;-91
2021/03/10 04:46:39;;;;;;;21.58;12.73;;;;;;;;;;4999272;28;20109;-92
2021/03/10 04:49:43;;;;;;;18.70;12.68;;;;;;;;;;5000162;28;20054;-92
2021/03/10 04:52:55;;;;;;;18.75;12.65;;;;;;;;;;4997547;28;20031;-92
2021/03/10 04:56:05;;;;;;;20.52;13.60;;;;;;;;;;4983190;28;20052;-92
2021/03/10 04:59:14;;;;;;;20.58;13.65;;;;;;;;;;4994624;28;20045;-92
2021/03/10 05:02:24;;;;;;;21.83;13.25;;;;;;;;;;4997456;28;20025;-92
2021/03/10 05:05:03;;;;;;;20.33;13.05;;;;;;;;;;4992433;28;20472;-92
2021/03/10 05:07:53;;;;;;;26.48;14.30;;;;;;;;;;5017927;28;20026;-92
2021/03/10 05:10:43;;;;;;;22.90;14.40;;;;;;;;;;5019432;28;20038;-91
2021/03/10 05:13:49;;;;;;;25.95;13.98;;;;;;;;;;5014418;28;20029;-92
2021/03/10 05:16:57;;;;;;;22.25;13.85;;;;;;;;;;4959969;29;20035;-92
2021/03/10 05:20:11;;;;;;;22.90;13.98;;;;;;;;;;4954595;29;20039;-92
2021/03/10 05:22:58;;;;;;;20.65;13.73;;;;;;;;;;4959644;29;20047;-91
2021/03/10 05:25:29;;;;;;;22.30;13.30;;;;;;;;;;4981879;28;20108;-92
2021/03/10 05:28:15;;;;;;;21.00;13.27;;;;;;;;;;5018549;28;20050;-92
2021/03/10 05:31:38;;;;;;;19.83;13.40;;;;;;;;;;5018641;28;20033;-92
2021/03/10 05:43:44;;;;;;;21.15;12.85;;;;;;;;;;5029244;28;20057;-92
2021/03/10 05:46:23;;;;;;;19.05;12.38;;;;;;;;;;5034769;28;20129;-92
2021/03/10 05:49:31;;;;;;;22.88;14.20;;;;;;;;;;5038354;28;20021;-92
2021/03/10 05:52:21;;;;;;;22.40;12.63;;;;;;;;;;5036860;28;20029;-92
2021/03/10 05:55:12;;;;;;;22.45;14.27;;;;;;;;;;5038433;28;20025;-92
2021/03/10 05:58:18;;;;;;;20.88;12.10;;;;;;;;;;5027236;28;20098;-92
2021/03/10 06:00:46;;;;;;;21.10;12.20;;;;;;;;;;5018656;28;20041;-91
2021/03/10 06:03:15;;;;;;;19.65;12.52;;;;;;;;;;4999476;28;20060;-92
2021/03/10 06:06:01;;;;;;;20.33;12.95;;;;;;;;;;5018148;28;20061;-92
2021/03/10 06:08:51;;;;;;;21.92;13.43;;;;;;;;;;5016588;28;20076;-92
2021/03/10 06:11:47;;;;;;;21.40;13.73;;;;;;;;;;5018631;28;20046;-92
2021/03/10 06:35:27;;;;;;;19.83;12.35;;;;;;;;;;5034572;28;20095;-92
2021/03/10 06:38:05;;;;;;;20.48;12.15;;;;;;;;;;5034727;28;20116;-92
2021/03/10 06:40:33;;;;;;;21.30;12.60;;;;;;;;;;5036953;28;20033;-92
2021/03/10 06:43:28;;;;;;;23.08;11.80;;;;;;;;;;5035360;28;20025;-92
2021/03/10 06:46:17;;;;;;;19.05;12.57;;;;;;;;;;5018228;28;20029;-92
2021/03/10 06:49:05;;;;;;;17.92;11.13;;;;;;;;;;5035446;28;20033;-92
2021/03/10 06:51:32;;;;;;;16.77;10.93;;;;;;;;;;5036260;28;20036;-92
2021/03/10 06:54:03;;;;;;;18.38;10.95;;;;;;;;;;5036624;28;20029;-92
2021/03/10 06:56:54;;;;;;;19.58;12.13;;;;;;;;;;5035948;28;20037;-92
2021/03/10 06:59:23;;;;;;;18.00;11.60;;;;;;;;;;5015836;28;20120;-92
2021/03/10 07:02:30;;;;;;;19.15;11.85;;;;;;;;;;5016339;28;20112;-92
2021/03/10 07:05:35;;;;;;;18.58;11.60;;;;;;;;;;5017444;28;20417;-92
2021/03/10 07:08:23;;;;;;;19.85;11.00;;;;;;;;;;5009670;28;20030;-92
2021/03/10 07:11:10;;;;;;;19.48;11.07;;;;;;;;;;5014678;28;20052;-92
2021/03/10 07:14:00;;;;;;;14.98;10.32;;;;;;;;;;4998803;28;20033;-92
2021/03/10 07:16:46;;;;;;;21.75;12.35;;;;;;;;;;5016330;28;20058;-92
2021/03/10 07:19:31;;;;;;;18.92;11.75;;;;;;;;;;5009781;28;20044;-92
2021/03/10 07:22:00;;;;;;;19.45;11.77;;;;;;;;;;4997818;28;20089;-92
2021/03/10 07:24:32;;;;;;;18.73;11.57;;;;;;;;;;5015910;28;20117;-92
2021/03/10 07:27:17;;;;;;;18.75;11.98;;;;;;;;;;5001938;28;20084;-92
2021/03/10 07:30:06;;;;;;;17.70;10.93;;;;;;;;;;4995970;28;20426;-92
2021/03/10 07:32:41;;;;;;;15.20;10.27;;;;;;;;;;4996094;28;20106;-92
2021/03/10 07:35:26;;;;;;;17.30;10.98;;;;;;;;;;4988567;28;20522;-92
2021/03/10 07:38:25;;;;;;;14.40;10.05;;;;;;;;;;4998061;28;20494;-92
2021/03/10 07:41:40;;;;;;;16.75;10.32;;;;;;;;;;5001024;28;20049;-78
2021/03/10 07:44:36;;;;;;;17.75;9.90;;;;;;;;;;4994204;28;20094;-79
2021/03/10 07:47:09;;;;;;;14.93;10.25;;;;;;;;;;4976837;28;20041;-78
2021/03/10 07:49:36;;;;;;;16.98;9.88;;;;;;;;;;4960878;28;20031;-78
2021/03/10 07:52:06;;;;;;;14.35;9.48;;;;;;;;;;4986561;28;20045;-78
2021/03/10 07:54:32;;;;;;;16.95;9.68;;;;;;;;;;4997720;28;20026;-78
2021/03/10 07:57:04;;;;;;;15.10;10.02;;;;;;;;;;4980575;28;20054;-78
2021/03/10 07:59:32;;;;;;;16.80;9.65;;;;;;;;;;4984539;28;20023;-79
2021/03/10 08:02:06;;;;;;;16.27;10.18;;;;;;;;;;4979734;28;20105;-79
2021/03/10 08:04:32;;;;;;;14.90;9.35;;;;;;;;;;4998289;28;20429;-78
2021/03/10 08:06:58;;;;;;;14.10;9.10;;;;;;;;;;4980388;28;20097;-78
2021/03/10 08:09:26;;;;;;;14.18;9.13;;;;;;;;;;4998149;28;20026;-80
2021/03/10 08:12:09;;;;;;;19.38;9.50;;;;;;;;;;4999278;28;20509;-79
2021/03/10 08:14:42;;;;;;;15.15;9.95;;;;;;;;;;4997707;28;20081;-79
2021/03/10 08:17:09;;;;;;;17.95;9.05;;;;;;;;;;4965383;28;20030;-80
2021/03/10 08:19:36;;;;;;;12.38;8.75;;;;;;;;;;4980261;28;20019;-80
2021/03/10 08:22:03;;;;;;;13.75;9.23;;;;;;;;;;4982086;28;20042;-81
2021/03/10 08:24:29;;;;;;;14.02;8.55;;;;;;;;;;4981039;28;20678;-80
2021/03/10 08:26:59;;;;;;;15.32;9.25;;;;;;;;;;4998012;28;20049;-80
2021/03/10 08:29:26;;;;;;;12.85;8.68;;;;;;;;;;4997707;28;20034;-80
2021/03/10 08:31:56;;;;;;;12.93;7.45;;;;;;;;;;4982868;28;20054;-80
2021/03/10 08:34:29;;;;;;;13.07;8.10;;;;;;;;;;4977916;28;20027;-80
2021/03/10 08:36:56;;;;;;;11.82;8.40;;;;;;;;;;4995851;28;20088;-80
2021/03/10 08:39:22;;;;;;;13.43;7.68;;;;;;;;;;4997425;28;20027;-81
2021/03/10 08:41:55;;;;;;;10.95;6.88;;;;;;;;;;4981424;28;20038;-80
2021/03/10 08:44:23;;;;;;;13.02;7.28;;;;;;;;;;5002681;28;20026;-80
2021/03/10 08:46:50;;;;;;;9.77;6.88;;;;;;;;;;5001583;28;20422;-80
2021/03/10 08:49:18;;;;;;;11.00;7.05;;;;;;;;;;5001785;28;20037;-81
2021/03/10 08:51:44;;;;;;;10.65;6.53;;;;;;;;;;5000894;28;20079;-79
2021/03/10 08:54:11;;;;;;;11.65;6.60;;;;;;;;;;5015172;28;20050;-80
2021/03/10 08:56:46;;;;;;;9.95;6.50;;;;;;;;;;5020090;28;20438;-79
2021/03/10 08:59:12;;;;;;;10.32;7.10;;;;;;;;;;4999016;28;20022;-80
2021/03/10 09:01:45;;;;;;;8.40;5.65;;;;;;;;;;4982705;28;20088;-79
2021/03/10 09:04:11;;;;;;;11.30;6.10;;;;;;;;;;5002676;28;20063;-79
2021/03/10 09:06:37;;;;;;;7.65;5.80;;;;;;;;;;5003256;28;20030;-80
2021/03/10 09:09:04;;;;;;;16.50;6.50;;;;;;;;;;5021902;28;20040;-80
2021/03/10 09:11:31;;;;;;;8.00;5.15;;;;;;;;;;5020453;28;20111;-80
2021/03/10 09:13:57;;;;;;;6.68;4.78;;;;;;;;;;5003166;28;20029;-81
2021/03/10 09:16:23;;;;;;;5.60;3.25;;;;;;;;;;5020770;28;20534;-81
2021/03/10 09:19:01;;;;;;;5.15;3.45;;;;;;;;;;5018096;28;20026;-79
2021/03/10 09:21:39;;;;;;;5.40;2.90;;;;;;;;;;4979444;28;20097;-79
2021/03/10 09:24:05;;;;;;;5.35;3.88;;;;;;;;;;4986568;28;20022;-79
2021/03/10 09:26:38;;;;;;;7.80;4.13;;;;;;;;;;5008272;28;20036;-79
2021/03/10 09:29:04;;;;;;;5.97;3.03;;;;;;;;;;4999138;28;20022;-79
2021/03/10 09:31:30;;;;;;;3.78;2.70;;;;;;;;;;5004182;28;20264;-78
2021/03/10 09:34:05;;;;;;;3.65;2.17;;;;;;;;;;4998886;28;20034;-81
2021/03/10 09:36:31;;;;;;;4.72;2.67;;;;;;;;;;4982051;28;20041;-80
2021/03/10 09:38:58;;;;;;;4.50;3.10;;;;;;;;;;4997141;28;20026;-79
2021/03/10 09:41:25;;;;;;;4.50;3.13;;;;;;;;;;4997709;28;20015;-78
2021/03/10 09:44:02;;;;;;;6.68;2.80;;;;;;;;;;4997247;28;20041;-80
2021/03/10 09:46:41;;;;;;;4.38;3.10;;;;;;;;;;4999016;28;20034;-80
2021/03/10 09:49:07;;;;;;;6.18;2.80;;;;;;;;;;4980501;28;20026;-80
2021/03/10 09:51:33;;;;;;;4.45;2.67;;;;;;;;;;4999017;28;20050;-79
2021/03/10 09:54:00;;;;;;;7.40;2.47;;;;;;;;;;4998389;28;20034;-80
2021/03/10 09:56:26;;;;;;;3.22;2.58;;;;;;;;;;4981918;28;20041;-80
2021/03/10 09:58:57;;;;;;;3.80;2.35;;;;;;;;;;4981742;28;20057;-80
2021/03/10 10:01:23;;;;;;;4.93;2.13;;;;;;;;;;4999930;28;20031;-81
2021/03/10 10:03:50;;;;;;;8.27;2.40;;;;;;;;;;5000676;28;20057;-80
2021/03/10 10:06:20;;;;;;;5.15;2.03;;;;;;;;;;5018437;28;20025;-80
2021/03/10 10:08:46;;;;;;;5.88;2.35;;;;;;;;;;5019654;28;20478;-82
2021/03/10 10:11:13;;;;;;;5.40;1.67;;;;;;;;;;5019185;28;20026;-80
2021/03/10 10:13:42;;;;;;;2.70;2.20;;;;;;;;;;5020129;28;20030;-81
2021/03/10 10:16:09;;;;;;;3.03;2.10;;;;;;;;;;5018371;28;20026;-80
2021/03/10 10:18:36;;;;;;;3.40;2.22;;;;;;;;;;5001930;28;20120;-80
2021/03/10 10:21:03;;;;;;;4.25;2.63;;;;;;;;;;5019487;28;20496;-80
2021/03/10 10:23:29;;;;;;;8.90;4.95;;;;;;;;;;5019804;28;20034;-82
2021/03/10 10:25:55;;;;;;;4.30;2.55;;;;;;;;;;5000489;28;20052;-80
2021/03/10 10:28:22;;;;;;;3.90;2.30;;;;;;;;;;5000974;28;20033;-80
2021/03/10 10:30:48;;;;;;;5.90;2.60;;;;;;;;;;5002229;28;20026;-80
2021/03/10 10:33:14;;;;;;;4.30;2.47;;;;;;;;;;5018820;28;20378;-81
2021/03/10 10:35:40;;;;;;;9.68;6.15;;;;;;;;;;5018518;28;20130;-81
2021/03/10 10:38:08;;;;;;;4.32;3.00;;;;;;;;;;5019330;28;20113;-81
2021/03/10 10:40:34;;;;;;;4.18;2.72;;;;;;;;;;5019221;28;20033;-81
2021/03/10 10:43:00;;;;;;;4.70;2.75;;;;;;;;;;5018283;28;20037;-81
2021/03/10 10:45:27;;;;;;;4.05;2.70;;;;;;;;;;5018702;28;20420;-81
2021/03/10 10:47:53;;;;;;;4.47;2.40;;;;;;;;;;5019254;28;20038;-81
2021/03/10 10:50:19;;;;;;;2.88;2.45;;;;;;;;;;5018832;28;20022;-82
2021/03/10 10:52:47;;;;;;;5.05;2.83;;;;;;;;;;5018476;28;20026;-80
2021/03/10 10:55:14;;;;;;;4.72;3.25;;;;;;;;;;5001691;28;20026;-83
2021/03/10 10:57:41;;;;;;;12.32;7.05;;;;;;;;;;5001519;28;20037;-80
2021/03/10 11:00:08;;;;;;;12.40;9.07;;;;;;;;;;5018459;28;20034;-80
2021/03/10 11:02:34;;;;;;;5.28;3.10;;;;;;;;;;5019084;28;20052;-80
2021/03/10 11:05:00;;;;;;;6.90;3.13;;;;;;;;;;5001383;28;20061;-79
2021/03/10 11:07:26;;;;;;;3.65;2.88;;;;;;;;;;5000813;28;20048;-81
2021/03/10 11:09:52;;;;;;;9.32;3.75;;;;;;;;;;5018905;28;20567;-80
2021/03/10 11:12:18;;;;;;;6.07;3.60;;;;;;;;;;5001319;28;20061;-80
2021/03/10 11:14:44;;;;;;;4.50;3.55;;;;;;;;;;5018242;28;20109;-80
2021/03/10 11:17:11;;;;;;;4.07;3.28;;;;;;;;;;5002515;28;20025;-80
2021/03/10 11:19:38;;;;;;;6.03;3.45;;;;;;;;;;5017349;28;20026;-80
2021/03/10 11:22:06;;;;;;;4.55;3.10;;;;;;;;;;5000094;28;20030;-80
2021/03/10 11:24:32;;;;;;;6.28;4.38;;;;;;;;;;5018173;28;20513;-80
2021/03/10 11:26:58;;;;;;;7.18;4.65;;;;;;;;;;5004489;28;20057;-80
2021/03/10 11:29:24;;;;;;;7.38;4.07;;;;;;;;;;5010118;28;20034;-81
2021/03/10 11:31:51;;;;;;;6.80;5.72;;;;;;;;;;5000886;28;20093;-80
2021/03/10 11:34:17;;;;;;;7.28;4.82;;;;;;;;;;5019031;28;20022;-80
2021/03/10 11:36:43;;;;;;;8.95;5.10;;;;;;;;;;4999135;28;20046;-81
2021/03/10 11:39:09;;;;;;;8.32;5.20;;;;;;;;;;5019114;28;20025;-80
2021/03/10 11:41:35;;;;;;;6.45;4.82;;;;;;;;;;5018374;28;20048;-80
2021/03/10 11:44:02;;;;;;;6.15;4.53;;;;;;;;;;5020033;28;20026;-82
2021/03/10 11:46:29;;;;;;;10.73;5.00;;;;;;;;;;5019605;28;20033;-80
2021/03/10 11:48:55;;;;;;;4.68;4.18;;;;;;;;;;5019711;28;20036;-80
2021/03/10 11:51:21;;;;;;;5.35;4.25;;;;;;;;;;5001138;28;20058;-80
2021/03/10 11:53:47;;;;;;;6.00;4.68;;;;;;;;;;5018929;28;20022;-79
2021/03/10 11:56:14;;;;;;;6.43;4.95;;;;;;;;;;5019805;28;20097;-80
2021/03/10 11:58:40;;;;;;;5.93;4.90;;;;;;;;;;5018884;28;20026;-80
2021/03/10 12:01:07;;;;;;;5.90;5.15;;;;;;;;;;5019078;28;20045;-80
2021/03/10 12:03:37;;;;;;;5.53;4.93;;;;;;;;;;5017715;28;20034;-79
2021/03/10 12:06:04;;;;;;;8.40;5.90;;;;;;;;;;5018449;28;20041;-79
2021/03/10 12:08:30;;;;;;;6.70;4.70;;;;;;;;;;5000173;28;20026;-80
2021/03/10 12:10:56;;;;;;;5.53;4.57;;;;;;;;;;5018879;28;20036;-80
2021/03/10 12:13:22;;;;;;;7.72;5.55;;;;;;;;;;4991830;28;20026;-79
2021/03/10 12:15:48;;;;;;;6.13;4.50;;;;;;;;;;5020058;28;20040;-80
2021/03/10 12:18:14;;;;;;;5.75;5.15;;;;;;;;;;5023483;28;20086;-80
2021/03/10 12:20:40;;;;;;;5.70;4.15;;;;;;;;;;5021992;28;20121;-79
2021/03/10 12:23:07;;;;;;;6.88;4.38;;;;;;;;;;5019350;28;20041;-80
2021/03/10 12:25:33;;;;;;;3.95;3.55;;;;;;;;;;5002814;28;20475;-80
2021/03/10 12:27:59;;;;;;;7.85;5.93;;;;;;;;;;5002744;28;20463;-80
2021/03/10 12:30:25;;;;;;;4.47;2.47;;;;;;;;;;5018303;28;20492;-79
2021/03/10 12:32:51;;;;;;;14.88;9.93;;;;;;;;;;5001443;28;20377;-80
2021/03/10 12:35:18;;;;;;;5.00;3.83;;;;;;;;;;5014027;28;20040;-79
2021/03/10 12:37:44;;;;;;;5.95;4.65;;;;;;;;;;5019592;28;20026;-79
2021/03/10 12:40:12;;;;;;;5.57;3.50;;;;;;;;;;5019652;28;20041;-79
2021/03/10 12:42:38;;;;;;;5.15;3.38;;;;;;;;;;5020722;28;20029;-80
2021/03/10 12:45:05;;;;;;;5.90;2.95;;;;;;;;;;5002787;28;20183;-81
2021/03/10 12:47:31;;;;;;;3.97;3.55;;;;;;;;;;5011389;28;20033;-80
2021/03/10 12:49:58;;;;;;;8.13;6.50;;;;;;;;;;5019519;28;20088;-80
2021/03/10 12:52:25;;;;;;;11.32;8.57;;;;;;;;;;5018755;28;20030;-79
2021/03/10 12:54:51;;;;;;;13.00;10.25;;;;;;;;;;5018553;28;20030;-80
2021/03/10 12:57:17;;;;;;;13.45;10.00;;;;;;;;;;5018574;28;20041;-80
2021/03/10 12:59:43;;;;;;;16.02;12.32;;;;;;;;;;5000413;28;20034;-80
2021/03/10 13:02:09;;;;;;;17.30;13.50;;;;;;;;;;5017318;28;20438;-79
2021/03/10 13:04:35;;;;;;;18.27;13.18;;;;;;;;;;5017171;28;20026;-80
2021/03/10 13:07:01;;;;;;;17.48;13.02;;;;;;;;;;5017244;28;20445;-80
2021/03/10 13:09:27;;;;;;;19.13;14.15;;;;;;;;;;4998938;28;20145;-80
2021/03/10 13:11:53;;;;;;;21.65;14.63;;;;;;;;;;4998883;28;20022;-79
2021/03/10 13:14:20;;;;;;;19.73;14.73;;;;;;;;;;5017349;28;20036;-79
2021/03/10 13:16:46;;;;;;;21.10;14.82;;;;;;;;;;5000153;28;20117;-79
2021/03/10 13:19:12;;;;;;;21.10;15.30;;;;;;;;;;5017409;28;20033;-79
2021/03/10 13:21:38;;;;;;;20.92;14.40;;;;;;;;;;5016968;28;20018;-79
2021/03/10 13:24:04;;;;;;;23.17;16.17;;;;;;;;;;5016371;28;20117;-79
2021/03/10 13:26:31;;;;;;;22.98;15.95;;;;;;;;;;5016243;28;20022;-80
2021/03/10 13:28:57;;;;;;;21.73;14.80;;;;;;;;;;5016315;28;20536;-77
2021/03/10 13:31:23;;;;;;;20.52;14.40;;;;;;;;;;4999134;28;20033;-79
2021/03/10 13:33:49;;;;;;;25.33;14.85;;;;;;;;;;4999885;28;20490;-79
2021/03/10 13:36:16;;;;;;;21.33;15.70;;;;;;;;;;5017424;28;20042;-79
2021/03/10 13:38:42;;;;;;;21.10;15.48;;;;;;;;;;5016462;28;20956;-79
2021/03/10 13:41:08;;;;;;;21.35;15.25;;;;;;;;;;5017563;28;20164;-79
2021/03/10 13:43:34;;;;;;;24.55;15.20;;;;;;;;;;5017673;28;20034;-79
2021/03/10 13:46:01;;;;;;;27.40;15.07;;;;;;;;;;5017467;28;20037;-80
2021/03/10 13:48:27;;;;;;;21.35;15.13;;;;;;;;;;5018078;28;20037;-80
2021/03/10 13:50:53;;;;;;;20.13;14.43;;;;;;;;;;5018331;28;20065;-81
2021/03/10 13:53:20;;;;;;;22.30;15.13;;;;;;;;;;5024129;28;20126;-81
2021/03/10 13:55:46;;;;;;;22.67;14.70;;;;;;;;;;5004650;28;20054;-80
2021/03/10 13:58:13;;;;;;;22.88;14.80;;;;;;;;;;5002328;28;20026;-80
2021/03/10 14:00:39;;;;;;;21.33;15.57;;;;;;;;;;5019206;28;20338;-80
2021/03/10 14:03:06;;;;;;;22.63;14.75;;;;;;;;;;5019332;28;20045;-80
2021/03/10 14:05:32;;;;;;;24.60;14.07;;;;;;;;;;5001374;28;20022;-82
2021/03/10 14:07:58;;;;;;;19.20;13.52;;;;;;;;;;5001894;28;20038;-81
2021/03/10 14:10:24;;;;;;;23.95;13.27;;;;;;;;;;5002466;28;20087;-80
2021/03/10 14:12:51;;;;;;;17.23;12.55;;;;;;;;;;5020670;28;20496;-80
2021/03/10 14:15:18;;;;;;;18.17;13.07;;;;;;;;;;5019934;28;20030;-81
2021/03/10 14:17:45;;;;;;;18.02;12.30;;;;;;;;;;5019989;28;20022;-81
2021/03/10 14:20:11;;;;;;;16.65;11.10;;;;;;;;;;5020156;28;20061;-81
2021/03/10 14:22:41;;;;;;;18.58;12.38;;;;;;;;;;5020641;28;20025;-80
2021/03/10 14:25:08;;;;;;;16.35;11.50;;;;;;;;;;5001914;28;20112;-81
2021/03/10 14:27:35;;;;;;;20.88;12.27;;;;;;;;;;4984722;28;20034;-80
2021/03/10 14:30:01;;;;;;;16.50;11.93;;;;;;;;;;4998789;28;20026;-81
2021/03/10 14:32:27;;;;;;;15.38;10.70;;;;;;;;;;5004620;28;20033;-82
2021/03/10 14:34:53;;;;;;;18.55;11.75;;;;;;;;;;5003038;28;20068;-82
2021/03/10 14:37:19;;;;;;;15.95;11.60;;;;;;;;;;5020109;28;20489;-82
2021/03/10 14:39:45;;;;;;;17.23;11.20;;;;;;;;;;5018771;28;20074;-81
2021/03/10 14:42:11;;;;;;;16.50;11.65;;;;;;;;;;5000634;28;20033;-81
2021/03/10 14:44:37;;;;;;;18.00;12.02;;;;;;;;;;5019090;28;20022;-81
2021/03/10 14:47:04;;;;;;;17.63;10.65;;;;;;;;;;5018575;28;20053;-81
2021/03/10 14:49:30;;;;;;;14.43;10.50;;;;;;;;;;5017512;28;20044;-81
2021/03/10 14:51:56;;;;;;;17.00;10.65;;;;;;;;;;5017766;28;20031;-81
2021/03/10 14:54:22;;;;;;;16.38;10.95;;;;;;;;;;4999769;28;20141;-81
2021/03/10 14:56:48;;;;;;;17.23;11.50;;;;;;;;;;5015929;28;20481;-82
2021/03/10 14:59:14;;;;;;;17.27;11.05;;;;;;;;;;5004403;28;20022;-81
2021/03/10 15:01:40;;;;;;;17.15;10.85;;;;;;;;;;4997121;28;20030;-81
2021/03/10 15:04:14;;;;;;;17.00;11.20;;;;;;;;;;4997646;28;20541;-81
2021/03/10 15:06:40;;;;;;;15.25;10.48;;;;;;;;;;5016997;28;20026;-81
2021/03/10 15:09:07;;;;;;;13.98;10.32;;;;;;;;;;5001971;28;20080;-81
2021/03/10 15:11:33;;;;;;;17.92;10.90;;;;;;;;;;5001373;28;20033;-81
2021/03/10 15:13:59;;;;;;;15.80;10.23;;;;;;;;;;5018194;28;20436;-81
2021/03/10 15:16:25;;;;;;;16.48;10.65;;;;;;;;;;5018112;28;20045;-82
2021/03/10 15:18:51;;;;;;;15.60;9.95;;;;;;;;;;5019095;28;20018;-81
2021/03/10 15:21:19;;;;;;;15.02;10.10;;;;;;;;;;5019035;28;20025;-82
2021/03/10 15:23:45;;;;;;;17.65;9.90;;;;;;;;;;5000919;28;20040;-82
2021/03/10 15:26:11;;;;;;;17.02;10.23;;;;;;;;;;5011413;28;20026;-81
2021/03/10 15:28:37;;;;;;;16.20;10.18;;;;;;;;;;5000961;28;20026;-82
2021/03/10 15:31:03;;;;;;;13.55;9.20;;;;;;;;;;5017234;28;20117;-82
2021/03/10 15:33:29;;;;;;;14.18;9.05;;;;;;;;;;5000082;28;20022;-81
2021/03/10 15:35:56;;;;;;;12.95;8.40;;;;;;;;;;5017094;28;20064;-81
2021/03/10 15:38:22;;;;;;;14.95;9.52;;;;;;;;;;5018328;28;20529;-82
2021/03/10 15:40:48;;;;;;;15.38;9.82;;;;;;;;;;5016838;28;20448;-82
2021/03/10 15:43:14;;;;;;;15.00;9.25;;;;;;;;;;5016977;28;20369;-82
2021/03/10 15:45:40;;;;;;;11.98;7.88;;;;;;;;;;5017262;28;20080;-81
2021/03/10 15:48:09;;;;;;;13.82;8.40;;;;;;;;;;4998881;28;20034;-81
2021/03/10 15:50:35;;;;;;;11.75;8.25;;;;;;;;;;5017370;28;20456;-82
2021/03/10 15:53:01;;;;;;;13.77;8.35;;;;;;;;;;5016770;28;20018;-82
2021/03/10 15:55:27;;;;;;;11.73;8.23;;;;;;;;;;4999292;28;20029;-82
2021/03/10 15:57:53;;;;;;;15.68;8.68;;;;;;;;;;4998900;28;20080;-82
2021/03/10 16:00:20;;;;;;;12.68;8.32;;;;;;;;;;5016590;28;20030;-82
2021/03/10 16:02:46;;;;;;;19.70;8.32;;;;;;;;;;4999718;28;20040;-82
2021/03/10 16:05:12;;;;;;;15.77;8.40;;;;;;;;;;5017008;28;20443;-81
2021/03/10 16:07:39;;;;;;;11.75;7.35;;;;;;;;;;5000141;28;20030;-81
2021/03/10 16:10:05;;;;;;;12.07;7.45;;;;;;;;;;5001265;28;20057;-81
2021/03/10 16:12:31;;;;;;;14.27;8.35;;;;;;;;;;5003181;28;20033;-80
2021/03/10 16:14:58;;;;;;;11.52;8.18;;;;;;;;;;5020576;28;20053;-79
2021/03/10 16:17:24;;;;;;;12.13;7.68;;;;;;;;;;5018492;28;20068;-79
2021/03/10 16:19:50;;;;;;;10.90;7.15;;;;;;;;;;5004423;28;20471;-79
2021/03/10 16:22:16;;;;;;;12.95;7.63;;;;;;;;;;5022380;28;20055;-79
2021/03/10 16:24:42;;;;;;;11.68;7.38;;;;;;;;;;5022992;28;20033;-79
2021/03/10 16:27:08;;;;;;;16.83;7.65;;;;;;;;;;5007576;28;20034;-79
2021/03/10 16:29:34;;;;;;;14.75;7.38;;;;;;;;;;5002484;28;20022;-79
2021/03/10 16:32:00;;;;;;;16.58;7.35;;;;;;;;;;5019307;28;20041;-79
2021/03/10 16:34:27;;;;;;;13.05;7.22;;;;;;;;;;5022205;28;20030;-79
2021/03/10 16:36:54;;;;;;;14.50;8.27;;;;;;;;;;5022618;28;20034;-79
2021/03/10 16:39:20;;;;;;;13.68;7.85;;;;;;;;;;5022497;28;20033;-79
2021/03/10 16:41:50;;;;;;;11.82;7.85;;;;;;;;;;5021906;28;20018;-79
2021/03/10 16:44:18;;;;;;;15.57;7.22;;;;;;;;;;5004284;28;20111;-80
2021/03/10 16:46:44;;;;;;;16.38;7.28;;;;;;;;;;5021637;28;20528;-79
2021/03/10 16:49:11;;;;;;;14.93;6.80;;;;;;;;;;5021441;28;20092;-80
2021/03/10 16:51:37;;;;;;;17.08;7.60;;;;;;;;;;5003689;28;20022;-80
2021/03/10 16:54:04;;;;;;;13.60;6.68;;;;;;;;;;5021764;28;20077;-79
2021/03/10 16:56:30;;;;;;;10.77;6.05;;;;;;;;;;5003794;28;20030;-79
2021/03/10 16:58:57;;;;;;;8.65;5.57;;;;;;;;;;5011896;28;20404;-79
2021/03/10 17:01:23;;;;;;;9.68;5.50;;;;;;;;;;5002320;28;20023;-79
2021/03/10 17:06:53;;;;;;;7.30;4.20;;;;;;;;;;5005551;28;20025;-79
2021/03/10 17:09:19;;;;;;;7.47;4.22;;;;;;;;;;5006436;28;20026;-79
2021/03/10 17:11:45;;;;;;;10.35;4.20;;;;;;;;;;5005761;28;20089;-79
2021/03/10 17:14:11;;;;;;;7.80;4.10;;;;;;;;;;4988450;28;20449;-79
2021/03/10 17:16:37;;;;;;;5.78;3.72;;;;;;;;;;4987935;28;20080;-80
2021/03/10 17:19:03;;;;;;;7.03;4.40;;;;;;;;;;5005918;28;20026;-80
2021/03/10 17:21:30;;;;;;;10.43;4.40;;;;;;;;;;5006568;28;20030;-79
2021/03/10 17:23:56;;;;;;;8.00;3.80;;;;;;;;;;5006331;28;20465;-79
2021/03/10 17:26:22;;;;;;;8.75;3.38;;;;;;;;;;4996910;28;20500;-79
2021/03/10 17:28:48;;;;;;;8.52;3.47;;;;;;;;;;5025961;28;20022;-79
2021/03/10 17:31:14;;;;;;;7.13;3.63;;;;;;;;;;5007194;28;20034;-79
2021/03/10 17:33:40;;;;;;;7.05;3.55;;;;;;;;;;5009874;28;20026;-80
2021/03/10 17:36:07;;;;;;;5.45;3.42;;;;;;;;;;5026899;28;20042;-79
2021/03/10 17:38:33;;;;;;;6.10;2.90;;;;;;;;;;5026765;28;20085;-79
2021/03/10 17:40:59;;;;;;;7.50;3.33;;;;;;;;;;5026946;28;20041;-80
2021/03/10 17:43:25;;;;;;;8.80;3.60;;;;;;;;;;5008960;28;20520;-79
2021/03/10 17:45:51;;;;;;;6.20;3.63;;;;;;;;;;5025520;28;20025;-79
2021/03/10 17:48:17;;;;;;;12.60;6.32;;;;;;;;;;5007580;28;20026;-79
2021/03/10 17:50:44;;;;;;;8.05;4.80;;;;;;;;;;5007354;28;20030;-79
2021/03/10 17:53:10;;;;;;;6.63;4.20;;;;;;;;;;5025344;28;20083;-79
2021/03/10 17:55:37;;;;;;;7.47;5.05;;;;;;;;;;5008783;28;20029;-79
2021/03/10 17:58:03;;;;;;;8.25;5.78;;;;;;;;;;5023246;28;20024;-79
2021/03/10 18:00:29;;;;;;;6.88;5.07;;;;;;;;;;5005940;28;20030;-79
2021/03/10 18:02:55;;;;;;;7.22;4.68;;;;;;;;;;5005761;28;20032;-79
2021/03/10 18:05:22;;;;;;;8.48;5.43;;;;;;;;;;5005696;28;20548;-79
2021/03/10 18:07:48;;;;;;;7.53;4.82;;;;;;;;;;5005034;28;20397;-79
2021/03/10 18:10:14;;;;;;;8.20;5.15;;;;;;;;;;4988132;28;20054;-80
2021/03/10 18:12:40;;;;;;;6.68;4.30;;;;;;;;;;5006108;28;20587;-79
2021/03/10 18:15:07;;;;;;;7.20;4.55;;;;;;;;;;5005074;28;20038;-79
2021/03/10 18:17:33;;;;;;;9.23;4.65;;;;;;;;;;5005494;28;20023;-79
2021/03/10 18:19:59;;;;;;;5.50;4.15;;;;;;;;;;5005809;28;20026;-79
2021/03/10 18:22:25;;;;;;;9.10;4.57;;;;;;;;;;4987737;28;20501;-79
2021/03/10 18:24:51;;;;;;;10.00;6.10;;;;;;;;;;5005427;28;20532;-79
2021/03/10 18:27:24;;;;;;;8.35;4.80;;;;;;;;;;5003479;28;20026;-79
2021/03/10 18:29:51;;;;;;;9.63;4.40;;;;;;;;;;5006574;28;20033;-79
2021/03/10 18:32:17;;;;;;;11.10;5.68;;;;;;;;;;4989834;28;20031;-80
2021/03/10 18:34:43;;;;;;;8.15;5.38;;;;;;;;;;4988539;28;20030;-80
2021/03/10 18:37:10;;;;;;;8.02;6.20;;;;;;;;;;5005750;28;20038;-80
2021/03/10 18:39:36;;;;;;;10.02;6.30;;;;;;;;;;4988484;28;20173;-80
2021/03/10 18:42:02;;;;;;;10.65;5.43;;;;;;;;;;5006046;28;20032;-80
2021/03/10 18:44:28;;;;;;;11.18;5.78;;;;;;;;;;5004351;28;20401;-80
2021/03/10 18:46:54;;;;;;;9.32;5.68;;;;;;;;;;5006264;28;20023;-80
2021/03/10 18:49:20;;;;;;;14.63;7.10;;;;;;;;;;5006050;28;20031;-80
2021/03/10 18:51:46;;;;;;;8.68;6.00;;;;;;;;;;4988255;28;20557;-80
2021/03/10 18:54:12;;;;;;;8.50;5.60;;;;;;;;;;5004971;28;20084;-80
2021/03/10 18:56:38;;;;;;;11.00;6.10;;;;;;;;;;4987364;28;20026;-80
2021/03/10 18:59:04;;;;;;;12.70;7.15;;;;;;;;;;4997445;28;20014;-80
2021/03/10 19:01:31;;;;;;;15.60;8.63;;;;;;;;;;5024139;28;20088;-80
2021/03/10 19:03:57;;;;;;;11.77;8.35;;;;;;;;;;5024443;28;20037;-80
2021/03/10 19:06:24;;;;;;;12.10;7.97;;;;;;;;;;5024203;28;20060;-80
2021/03/10 19:08:50;;;;;;;14.07;8.15;;;;;;;;;;5023553;28;20390;-80
2021/03/10 19:11:16;;;;;;;15.25;9.32;;;;;;;;;;5023684;28;20030;-80
2021/03/10 19:13:42;;;;;;;11.63;8.77;;;;;;;;;;5023836;28;20018;-80
2021/03/10 19:16:08;;;;;;;10.70;7.43;;;;;;;;;;5023950;28;20032;-80
2021/03/10 19:18:35;;;;;;;12.82;7.18;;;;;;;;;;5005950;28;20029;-82
2021/03/10 19:21:02;;;;;;;10.60;7.22;;;;;;;;;;5023953;28;20085;-80
2021/03/10 19:23:29;;;;;;;12.27;8.07;;;;;;;;;;5023767;28;20022;-80
2021/03/10 19:25:55;;;;;;;17.13;7.95;;;;;;;;;;5000997;28;20026;-80
2021/03/10 19:28:21;;;;;;;14.00;8.18;;;;;;;;;;5004362;28;20045;-80
2021/03/10 19:30:47;;;;;;;15.65;8.13;;;;;;;;;;5003782;28;20034;-80
2021/03/10 19:33:13;;;;;;;15.07;8.07;;;;;;;;;;5003741;28;20018;-80
2021/03/10 19:35:40;;;;;;;15.35;7.90;;;;;;;;;;5003885;28;20042;-80
2021/03/10 19:38:06;;;;;;;16.80;7.82;;;;;;;;;;5004255;28;20028;-80
2021/03/10 19:40:34;;;;;;;16.30;7.80;;;;;;;;;;5004131;28;20405;-80
2021/03/10 19:43:07;;;;;;;13.00;6.85;;;;;;;;;;5003858;28;20033;-80
2021/03/10 19:45:33;;;;;;;17.40;7.00;;;;;;;;;;4987109;28;20054;-80
2021/03/10 19:47:59;;;;;;;13.15;6.90;;;;;;;;;;5004077;28;20356;-80
2021/03/10 19:50:26;;;;;;;16.92;6.80;;;;;;;;;;5003632;28;20034;-80
2021/03/10 19:52:52;;;;;;;13.05;6.25;;;;;;;;;;4986990;28;20034;-80
2021/03/10 19:55:22;;;;;;;13.60;7.68;;;;;;;;;;4986482;28;20379;-80
2021/03/10 19:57:49;;;;;;;11.98;6.70;;;;;;;;;;4987072;28;20026;-80